sensor_id;sensor_type;location;lat;lon;timestamp;temperature;humidity
55693;DHT22;41590;53.366;5.212;2023-01-09T00:05:14;7.40;99.90
55693;DHT22;41590;53.366;5.212;2023-01-09T00:08:00;7.80;99.90
55693;DHT22;41590;53.366;5.212;2023-01-09T00:14:18;7.00;99.90
55693;DHT22;41590;53.366;5.212;2023-01-09T00:17:13;7.50;99.90
55693;DHT22;41590;53.366;5.212;2023-01-09T00:20:01;7.90;99.90
55693;DHT22;41590;53.366;5.212;2023-01-09T00:26:17;7.10;99.90
55693;DHT22;41590;53.366;5.212;2023-01-09T00:29:22;7.20;99.90
55693;DHT22;41590;53.366;5.212;2023-01-09T00:32:15;7.50;99.90
55693;DHT22;41590;53.366;5.212;2023-01-09T00:34:57;7.50;99.90
55693;DHT22;41590;53.366;5.212;2023-01-09T00:37:33;7.30;99.90
55693;DHT22;41590;53.366;5.212;2023-01-09T00:40:16;7.40;99.90
55693;DHT22;41590;53.366;5.212;2023-01-09T00:42:47;7.20;99.90
55693;DHT22;41590;53.366;5.212;2023-01-09T00:45:27;7.40;99.90
55693;DHT22;41590;53.366;5.212;2023-01-09T00:48:19;7.10;99.90
55693;DHT22;41590;53.366;5.212;2023-01-09T00:51:12;7.40;99.90
55693;DHT22;41590;53.366;5.212;2023-01-09T00:53:46;7.30;99.90
55693;DHT22;41590;53.366;5.212;2023-01-09T00:56:20;7.00;99.90
55693;DHT22;41590;53.366;5.212;2023-01-09T00:58:48;7.00;99.90
55693;DHT22;41590;53.366;5.212;2023-01-09T01:01:19;6.90;99.90
55693;DHT22;41590;53.366;5.212;2023-01-09T01:07:37;6.70;99.90
55693;DHT22;41590;53.366;5.212;2023-01-09T01:10:23;6.60;99.90
55693;DHT22;41590;53.366;5.212;2023-01-09T01:13:30;6.70;99.90
55693;DHT22;41590;53.366;5.212;2023-01-09T01:15:57;6.70;99.90
55693;DHT22;41590;53.366;5.212;2023-01-09T01:21:47;6.50;99.90
55693;DHT22;41590;53.366;5.212;2023-01-09T01:24:27;6.50;99.90
55693;DHT22;41590;53.366;5.212;2023-01-09T01:27:13;6.40;99.90
55693;DHT22;41590;53.366;5.212;2023-01-09T01:29:48;6.60;99.90
55693;DHT22;41590;53.366;5.212;2023-01-09T01:32:18;6.30;99.90
55693;DHT22;41590;53.366;5.212;2023-01-09T01:34:53;6.30;99.90
55693;DHT22;41590;53.366;5.212;2023-01-09T01:37:22;5.90;99.90
55693;DHT22;41590;53.366;5.212;2023-01-09T01:40:13;6.20;99.90
55693;DHT22;41590;53.366;5.212;2023-01-09T01:43:01;6.40;99.90
55693;DHT22;41590;53.366;5.212;2023-01-09T01:45:57;6.20;99.90
55693;DHT22;41590;53.366;5.212;2023-01-09T01:48:48;6.10;99.90
55693;DHT22;41590;53.366;5.212;2023-01-09T01:51:24;6.30;99.90
55693;DHT22;41590;53.366;5.212;2023-01-09T01:54:49;6.50;99.90
55693;DHT22;41590;53.366;5.212;2023-01-09T01:57:29;6.20;99.90
55693;DHT22;41590;53.366;5.212;2023-01-09T02:02:54;6.00;99.90
55693;DHT22;41590;53.366;5.212;2023-01-09T02:05:37;6.10;99.90
55693;DHT22;41590;53.366;5.212;2023-01-09T02:08:05;6.50;99.90
55693;DHT22;41590;53.366;5.212;2023-01-09T02:10:36;6.50;99.90
55693;DHT22;41590;53.366;5.212;2023-01-09T02:13:06;6.30;99.90
55693;DHT22;41590;53.366;5.212;2023-01-09T02:18:39;6.60;99.90
55693;DHT22;41590;53.366;5.212;2023-01-09T02:33:19;6.40;99.90
55693;DHT22;41590;53.366;5.212;2023-01-09T02:36:10;5.80;99.90
55693;DHT22;41590;53.366;5.212;2023-01-09T02:41:50;6.30;99.90
55693;DHT22;41590;53.366;5.212;2023-01-09T02:44:27;6.20;99.90
55693;DHT22;41590;53.366;5.212;2023-01-09T02:49:50;5.30;99.90
55693;DHT22;41590;53.366;5.212;2023-01-09T03:12:47;5.10;99.90
55693;DHT22;41590;53.366;5.212;2023-01-09T03:15:19;5.20;99.90
55693;DHT22;41590;53.366;5.212;2023-01-09T03:17:48;5.90;99.90
55693;DHT22;41590;53.366;5.212;2023-01-09T03:20:24;5.30;99.90
55693;DHT22;41590;53.366;5.212;2023-01-09T03:23:00;5.20;99.90
55693;DHT22;41590;53.366;5.212;2023-01-09T03:25:28;5.70;99.90
55693;DHT22;41590;53.366;5.212;2023-01-09T03:28:06;5.80;99.90
55693;DHT22;41590;53.366;5.212;2023-01-09T03:30:37;5.20;99.90
55693;DHT22;41590;53.366;5.212;2023-01-09T03:33:03;5.30;99.90
55693;DHT22;41590;53.366;5.212;2023-01-09T03:35:37;5.30;99.90
55693;DHT22;41590;53.366;5.212;2023-01-09T03:38:11;5.90;99.90
55693;DHT22;41590;53.366;5.212;2023-01-09T03:40:44;6.10;99.90
55693;DHT22;41590;53.366;5.212;2023-01-09T03:43:10;6.10;99.90
55693;DHT22;41590;53.366;5.212;2023-01-09T03:45:37;5.90;99.90
55693;DHT22;41590;53.366;5.212;2023-01-09T03:48:14;5.70;99.90
55693;DHT22;41590;53.366;5.212;2023-01-09T03:50:42;5.70;99.90
55693;DHT22;41590;53.366;5.212;2023-01-09T03:53:13;6.10;99.90
55693;DHT22;41590;53.366;5.212;2023-01-09T03:55:44;5.90;99.90
55693;DHT22;41590;53.366;5.212;2023-01-09T03:58:15;6.10;99.90
55693;DHT22;41590;53.366;5.212;2023-01-09T04:00:51;6.10;99.90
55693;DHT22;41590;53.366;5.212;2023-01-09T04:03:22;5.60;99.90
55693;DHT22;41590;53.366;5.212;2023-01-09T04:05:49;5.50;99.90
55693;DHT22;41590;53.366;5.212;2023-01-09T04:08:22;6.50;99.90
55693;DHT22;41590;53.366;5.212;2023-01-09T04:10:53;6.10;99.90
55693;DHT22;41590;53.366;5.212;2023-01-09T04:13:21;5.70;99.90
55693;DHT22;41590;53.366;5.212;2023-01-09T04:15:48;5.70;99.90
55693;DHT22;41590;53.366;5.212;2023-01-09T04:18:15;5.80;99.90
55693;DHT22;41590;53.366;5.212;2023-01-09T04:20:42;5.50;99.90
55693;DHT22;41590;53.366;5.212;2023-01-09T04:23:17;5.70;99.90
55693;DHT22;41590;53.366;5.212;2023-01-09T04:26:01;5.80;99.90
55693;DHT22;41590;53.366;5.212;2023-01-09T04:28:31;5.60;99.90
55693;DHT22;41590;53.366;5.212;2023-01-09T04:30:58;6.60;99.90
55693;DHT22;41590;53.366;5.212;2023-01-09T04:33:23;5.60;99.90
55693;DHT22;41590;53.366;5.212;2023-01-09T04:35:51;6.10;99.90
55693;DHT22;41590;53.366;5.212;2023-01-09T04:38:36;5.80;99.90
55693;DHT22;41590;53.366;5.212;2023-01-09T04:41:03;6.00;99.90
55693;DHT22;41590;53.366;5.212;2023-01-09T04:43:28;6.70;99.90
55693;DHT22;41590;53.366;5.212;2023-01-09T04:45:54;5.50;99.90
55693;DHT22;41590;53.366;5.212;2023-01-09T04:48:21;6.80;99.90
55693;DHT22;41590;53.366;5.212;2023-01-09T04:50:54;6.80;99.90
55693;DHT22;41590;53.366;5.212;2023-01-09T04:53:19;6.40;99.90
55693;DHT22;41590;53.366;5.212;2023-01-09T04:55:49;6.20;99.90
55693;DHT22;41590;53.366;5.212;2023-01-09T04:58:20;6.90;99.90
55693;DHT22;41590;53.366;5.212;2023-01-09T05:00:53;6.90;99.90
55693;DHT22;41590;53.366;5.212;2023-01-09T05:03:19;5.60;99.90
55693;DHT22;41590;53.366;5.212;2023-01-09T05:05:46;6.20;99.90
55693;DHT22;41590;53.366;5.212;2023-01-09T05:08:14;5.70;99.90
55693;DHT22;41590;53.366;5.212;2023-01-09T05:10:43;6.20;99.90
55693;DHT22;41590;53.366;5.212;2023-01-09T05:13:09;5.90;99.90
55693;DHT22;41590;53.366;5.212;2023-01-09T05:15:36;6.00;99.90
55693;DHT22;41590;53.366;5.212;2023-01-09T05:18:04;5.50;99.90
55693;DHT22;41590;53.366;5.212;2023-01-09T05:20:30;5.60;99.90
55693;DHT22;41590;53.366;5.212;2023-01-09T05:22:59;6.30;99.90
55693;DHT22;41590;53.366;5.212;2023-01-09T05:25:30;5.70;99.90
55693;DHT22;41590;53.366;5.212;2023-01-09T05:28:03;5.80;99.90
55693;DHT22;41590;53.366;5.212;2023-01-09T05:30:32;6.40;99.90
55693;DHT22;41590;53.366;5.212;2023-01-09T05:32:57;6.90;99.90
55693;DHT22;41590;53.366;5.212;2023-01-09T05:35:29;6.30;99.90
55693;DHT22;41590;53.366;5.212;2023-01-09T05:37:54;5.80;99.90
55693;DHT22;41590;53.366;5.212;2023-01-09T05:40:25;6.20;99.90
55693;DHT22;41590;53.366;5.212;2023-01-09T05:42:50;6.80;99.90
55693;DHT22;41590;53.366;5.212;2023-01-09T05:45:17;5.80;99.90
55693;DHT22;41590;53.366;5.212;2023-01-09T05:47:46;5.70;99.90
55693;DHT22;41590;53.366;5.212;2023-01-09T05:50:26;6.10;99.90
55693;DHT22;41590;53.366;5.212;2023-01-09T05:52:54;7.00;99.90
55693;DHT22;41590;53.366;5.212;2023-01-09T05:55:30;6.40;99.90
55693;DHT22;41590;53.366;5.212;2023-01-09T05:58:19;6.30;99.90
55693;DHT22;41590;53.366;5.212;2023-01-09T06:00:47;6.80;99.90
55693;DHT22;41590;53.366;5.212;2023-01-09T06:03:14;6.00;99.90
55693;DHT22;41590;53.366;5.212;2023-01-09T06:05:40;6.40;99.90
55693;DHT22;41590;53.366;5.212;2023-01-09T06:08:08;5.80;99.90
55693;DHT22;41590;53.366;5.212;2023-01-09T06:10:40;5.70;99.90
55693;DHT22;41590;53.366;5.212;2023-01-09T06:13:12;6.60;99.90
55693;DHT22;41590;53.366;5.212;2023-01-09T06:15:48;6.70;99.90
55693;DHT22;41590;53.366;5.212;2023-01-09T06:18:15;6.50;99.90
55693;DHT22;41590;53.366;5.212;2023-01-09T06:20:42;6.20;99.90
55693;DHT22;41590;53.366;5.212;2023-01-09T06:23:09;5.70;99.90
55693;DHT22;41590;53.366;5.212;2023-01-09T06:25:39;5.60;99.90
55693;DHT22;41590;53.366;5.212;2023-01-09T06:28:05;6.50;99.90
55693;DHT22;41590;53.366;5.212;2023-01-09T06:30:40;6.60;99.90
55693;DHT22;41590;53.366;5.212;2023-01-09T06:33:09;6.50;99.90
55693;DHT22;41590;53.366;5.212;2023-01-09T06:35:40;5.30;99.90
55693;DHT22;41590;53.366;5.212;2023-01-09T06:38:08;6.50;99.90
55693;DHT22;41590;53.366;5.212;2023-01-09T06:40:39;5.50;99.90
55693;DHT22;41590;53.366;5.212;2023-01-09T06:43:06;6.20;99.90
55693;DHT22;41590;53.366;5.212;2023-01-09T06:45:54;6.50;99.90
55693;DHT22;41590;53.366;5.212;2023-01-09T06:48:23;5.30;99.90
55693;DHT22;41590;53.366;5.212;2023-01-09T06:51:01;6.50;99.90
55693;DHT22;41590;53.366;5.212;2023-01-09T06:53:27;6.50;99.90
55693;DHT22;41590;53.366;5.212;2023-01-09T06:55:54;5.80;99.90
55693;DHT22;41590;53.366;5.212;2023-01-09T06:58:30;5.40;99.90
55693;DHT22;41590;53.366;5.212;2023-01-09T07:01:00;5.80;99.90
55693;DHT22;41590;53.366;5.212;2023-01-09T07:03:39;5.50;99.90
55693;DHT22;41590;53.366;5.212;2023-01-09T07:13:52;6.20;99.90
55693;DHT22;41590;53.366;5.212;2023-01-09T07:59:37;6.40;99.90
55693;DHT22;41590;53.366;5.212;2023-01-09T08:03:01;6.10;99.90
55693;DHT22;41590;53.366;5.212;2023-01-09T08:05:37;6.10;99.90
55693;DHT22;41590;53.366;5.212;2023-01-09T08:08:08;5.10;99.90
55693;DHT22;41590;53.366;5.212;2023-01-09T08:10:37;5.80;99.90
55693;DHT22;41590;53.366;5.212;2023-01-09T08:13:16;6.00;99.90
55693;DHT22;41590;53.366;5.212;2023-01-09T08:15:49;5.60;99.90
55693;DHT22;41590;53.366;5.212;2023-01-09T08:18:21;5.40;99.90
55693;DHT22;41590;53.366;5.212;2023-01-09T08:20:47;5.60;99.90
55693;DHT22;41590;53.366;5.212;2023-01-09T08:23:15;6.30;99.90
55693;DHT22;41590;53.366;5.212;2023-01-09T08:25:48;6.20;99.90
55693;DHT22;41590;53.366;5.212;2023-01-09T08:28:16;6.10;99.90
55693;DHT22;41590;53.366;5.212;2023-01-09T08:30:42;5.40;99.90
55693;DHT22;41590;53.366;5.212;2023-01-09T08:33:09;5.10;99.90
55693;DHT22;41590;53.366;5.212;2023-01-09T08:35:37;6.30;99.90
55693;DHT22;41590;53.366;5.212;2023-01-09T08:38:05;6.20;99.90
55693;DHT22;41590;53.366;5.212;2023-01-09T08:42:59;5.10;99.90
55693;DHT22;41590;53.366;5.212;2023-01-09T08:45:52;5.10;99.90
55693;DHT22;41590;53.366;5.212;2023-01-09T08:48:41;6.30;99.90
55693;DHT22;41590;53.366;5.212;2023-01-09T08:51:09;6.10;99.90
55693;DHT22;41590;53.366;5.212;2023-01-09T08:53:37;5.20;99.90
55693;DHT22;41590;53.366;5.212;2023-01-09T08:56:05;5.20;99.90
55693;DHT22;41590;53.366;5.212;2023-01-09T08:58:31;6.30;99.90
55693;DHT22;41590;53.366;5.212;2023-01-09T09:00:59;6.60;99.90
55693;DHT22;41590;53.366;5.212;2023-01-09T09:03:28;6.60;99.90
55693;DHT22;41590;53.366;5.212;2023-01-09T09:05:54;5.50;99.90
55693;DHT22;41590;53.366;5.212;2023-01-09T09:08:20;5.60;99.90
55693;DHT22;41590;53.366;5.212;2023-01-09T09:10:47;6.70;99.90
55693;DHT22;41590;53.366;5.212;2023-01-09T09:13:13;5.90;99.90
55693;DHT22;41590;53.366;5.212;2023-01-09T09:15:40;6.70;99.90
55693;DHT22;41590;53.366;5.212;2023-01-09T09:18:06;6.60;99.90
55693;DHT22;41590;53.366;5.212;2023-01-09T09:20:37;6.80;99.90
55693;DHT22;41590;53.366;5.212;2023-01-09T09:23:04;6.80;99.90
55693;DHT22;41590;53.366;5.212;2023-01-09T09:25:34;6.50;99.90
55693;DHT22;41590;53.366;5.212;2023-01-09T09:28:02;6.80;99.90
55693;DHT22;41590;53.366;5.212;2023-01-09T09:30:32;6.50;99.90
55693;DHT22;41590;53.366;5.212;2023-01-09T09:33:02;6.30;99.90
55693;DHT22;41590;53.366;5.212;2023-01-09T09:35:30;5.80;99.90
55693;DHT22;41590;53.366;5.212;2023-01-09T09:38:00;6.90;99.90
55693;DHT22;41590;53.366;5.212;2023-01-09T09:40:43;6.60;99.90
55693;DHT22;41590;53.366;5.212;2023-01-09T09:46:35;6.40;99.90
55693;DHT22;41590;53.366;5.212;2023-01-09T09:49:27;6.90;99.90
55693;DHT22;41590;53.366;5.212;2023-01-09T09:54:48;6.40;99.90
55693;DHT22;41590;53.366;5.212;2023-01-09T09:57:27;6.60;99.90
55693;DHT22;41590;53.366;5.212;2023-01-09T09:59:55;6.60;99.90
55693;DHT22;41590;53.366;5.212;2023-01-09T10:05:11;6.60;99.90
55693;DHT22;41590;53.366;5.212;2023-01-09T10:07:46;7.30;99.90
55693;DHT22;41590;53.366;5.212;2023-01-09T10:10:26;6.80;99.90
55693;DHT22;41590;53.366;5.212;2023-01-09T10:12:59;6.70;99.90
55693;DHT22;41590;53.366;5.212;2023-01-09T10:15:55;7.20;99.90
55693;DHT22;41590;53.366;5.212;2023-01-09T10:21:36;6.60;99.90
55693;DHT22;41590;53.366;5.212;2023-01-09T10:26:51;7.30;99.90
55693;DHT22;41590;53.366;5.212;2023-01-09T10:29:49;6.70;99.90
55693;DHT22;41590;53.366;5.212;2023-01-09T10:32:40;6.90;99.90
55693;DHT22;41590;53.366;5.212;2023-01-09T10:37:56;6.80;99.90
55693;DHT22;41590;53.366;5.212;2023-01-09T10:40:33;7.10;99.90
55693;DHT22;41590;53.366;5.212;2023-01-09T10:43:11;7.10;99.90
55693;DHT22;41590;53.366;5.212;2023-01-09T10:45:53;7.10;99.90
55693;DHT22;41590;53.366;5.212;2023-01-09T10:48:33;7.20;99.90
55693;DHT22;41590;53.366;5.212;2023-01-09T10:51:28;7.40;99.90
55693;DHT22;41590;53.366;5.212;2023-01-09T10:53:58;7.90;99.90
55693;DHT22;41590;53.366;5.212;2023-01-09T10:56:36;7.90;99.90
55693;DHT22;41590;53.366;5.212;2023-01-09T10:59:04;7.40;99.90
55693;DHT22;41590;53.366;5.212;2023-01-09T11:01:36;7.70;99.90
55693;DHT22;41590;53.366;5.212;2023-01-09T11:04:23;7.70;99.90
55693;DHT22;41590;53.366;5.212;2023-01-09T11:06:59;7.20;99.90
55693;DHT22;41590;53.366;5.212;2023-01-09T11:09:26;7.70;99.90
55693;DHT22;41590;53.366;5.212;2023-01-09T11:11:55;7.20;99.90
55693;DHT22;41590;53.366;5.212;2023-01-09T11:14:27;7.90;99.90
55693;DHT22;41590;53.366;5.212;2023-01-09T11:17:01;7.20;99.90
55693;DHT22;41590;53.366;5.212;2023-01-09T11:19:32;7.30;99.90
55693;DHT22;41590;53.366;5.212;2023-01-09T11:22:17;8.10;99.90
55693;DHT22;41590;53.366;5.212;2023-01-09T11:24:43;8.00;99.90
55693;DHT22;41590;53.366;5.212;2023-01-09T11:30:05;7.50;99.90
55693;DHT22;41590;53.366;5.212;2023-01-09T11:32:41;7.80;99.90
55693;DHT22;41590;53.366;5.212;2023-01-09T11:35:23;8.20;99.90
55693;DHT22;41590;53.366;5.212;2023-01-09T11:38:11;8.30;99.90
55693;DHT22;41590;53.366;5.212;2023-01-09T11:40:54;7.90;99.90
55693;DHT22;41590;53.366;5.212;2023-01-09T11:43:32;8.20;99.90
55693;DHT22;41590;53.366;5.212;2023-01-09T11:46:08;7.90;99.90
55693;DHT22;41590;53.366;5.212;2023-01-09T11:48:38;8.20;99.90
55693;DHT22;41590;53.366;5.212;2023-01-09T11:51:18;8.30;99.90
55693;DHT22;41590;53.366;5.212;2023-01-09T11:56:38;8.50;99.90
55693;DHT22;41590;53.366;5.212;2023-01-09T11:59:32;8.20;99.90
55693;DHT22;41590;53.366;5.212;2023-01-09T12:25:02;9.00;99.90
55693;DHT22;41590;53.366;5.212;2023-01-09T12:30:25;9.00;99.90
55693;DHT22;41590;53.366;5.212;2023-01-09T12:33:32;9.10;99.90
55693;DHT22;41590;53.366;5.212;2023-01-09T12:36:18;9.00;99.90
55693;DHT22;41590;53.366;5.212;2023-01-09T12:44:54;8.80;99.90
55693;DHT22;41590;53.366;5.212;2023-01-09T12:47:55;8.90;99.90
55693;DHT22;41590;53.366;5.212;2023-01-09T12:50:55;9.10;99.90
55693;DHT22;41590;53.366;5.212;2023-01-09T12:53:30;8.90;99.90
55693;DHT22;41590;53.366;5.212;2023-01-09T12:56:17;9.00;99.90
55693;DHT22;41590;53.366;5.212;2023-01-09T13:01:44;9.00;99.90
55693;DHT22;41590;53.366;5.212;2023-01-09T13:04:18;8.70;99.90
55693;DHT22;41590;53.366;5.212;2023-01-09T13:06:53;8.80;99.90
55693;DHT22;41590;53.366;5.212;2023-01-09T13:09:26;8.60;99.90
55693;DHT22;41590;53.366;5.212;2023-01-09T13:12:19;8.70;99.90
55693;DHT22;41590;53.366;5.212;2023-01-09T13:15:06;8.90;99.90
55693;DHT22;41590;53.366;5.212;2023-01-09T13:17:50;8.90;99.90
55693;DHT22;41590;53.366;5.212;2023-01-09T13:20:31;8.90;99.90
55693;DHT22;41590;53.366;5.212;2023-01-09T13:22:59;8.90;99.90
55693;DHT22;41590;53.366;5.212;2023-01-09T13:25:38;8.90;99.90
55693;DHT22;41590;53.366;5.212;2023-01-09T13:28:30;8.80;99.90
55693;DHT22;41590;53.366;5.212;2023-01-09T13:34:14;8.80;99.90
55693;DHT22;41590;53.366;5.212;2023-01-09T14:18:33;7.90;99.90
55693;DHT22;41590;53.366;5.212;2023-01-09T14:21:27;7.70;99.90
55693;DHT22;41590;53.366;5.212;2023-01-09T14:55:59;7.80;99.90
55693;DHT22;41590;53.366;5.212;2023-01-09T14:58:58;7.70;99.90
55693;DHT22;41590;53.366;5.212;2023-01-09T15:12:57;8.00;99.90
55693;DHT22;41590;53.366;5.212;2023-01-09T15:15:33;7.70;99.90
55693;DHT22;41590;53.366;5.212;2023-01-09T15:18:07;7.70;99.90
55693;DHT22;41590;53.366;5.212;2023-01-09T15:39:53;7.40;99.90
55693;DHT22;41590;53.366;5.212;2023-01-09T15:49:22;7.50;99.90
55693;DHT22;41590;53.366;5.212;2023-01-09T15:52:16;7.40;99.90
55693;DHT22;41590;53.366;5.212;2023-01-09T15:55:27;6.90;99.90
55693;DHT22;41590;53.366;5.212;2023-01-09T16:14:55;6.20;99.90
55693;DHT22;41590;53.366;5.212;2023-01-09T16:17:23;6.90;99.90
55693;DHT22;41590;53.366;5.212;2023-01-09T16:22:58;6.80;99.90
55693;DHT22;41590;53.366;5.212;2023-01-09T16:25:36;6.20;99.90
55693;DHT22;41590;53.366;5.212;2023-01-09T16:46:43;6.20;99.90
55693;DHT22;41590;53.366;5.212;2023-01-09T16:49:35;6.10;99.90
55693;DHT22;41590;53.366;5.212;2023-01-09T17:13:20;6.20;99.90
55693;DHT22;41590;53.366;5.212;2023-01-09T17:16:10;5.90;99.90
55693;DHT22;41590;53.366;5.212;2023-01-09T17:32:23;6.00;99.90
55693;DHT22;41590;53.366;5.212;2023-01-09T17:57:26;5.60;99.90
55693;DHT22;41590;53.366;5.212;2023-01-09T18:00:01;6.60;99.90
55693;DHT22;41590;53.366;5.212;2023-01-09T18:02:29;6.60;99.90
55693;DHT22;41590;53.366;5.212;2023-01-09T18:05:00;6.70;99.90
55693;DHT22;41590;53.366;5.212;2023-01-09T18:07:35;7.30;99.90
55693;DHT22;41590;53.366;5.212;2023-01-09T18:10:17;6.90;99.90
55693;DHT22;41590;53.366;5.212;2023-01-09T18:15:38;6.80;99.90
55693;DHT22;41590;53.366;5.212;2023-01-09T18:18:09;6.20;99.90
55693;DHT22;41590;53.366;5.212;2023-01-09T18:20:46;6.50;99.90
55693;DHT22;41590;53.366;5.212;2023-01-09T18:23:17;6.20;99.90
55693;DHT22;41590;53.366;5.212;2023-01-09T18:25:54;6.90;99.90
55693;DHT22;41590;53.366;5.212;2023-01-09T18:28:27;6.80;99.90
55693;DHT22;41590;53.366;5.212;2023-01-09T18:30:55;6.70;99.90
55693;DHT22;41590;53.366;5.212;2023-01-09T18:33:21;7.00;99.90
55693;DHT22;41590;53.366;5.212;2023-01-09T18:35:49;6.60;99.90
55693;DHT22;41590;53.366;5.212;2023-01-09T18:38:18;6.80;99.90
55693;DHT22;41590;53.366;5.212;2023-01-09T18:40:44;7.00;99.90
55693;DHT22;41590;53.366;5.212;2023-01-09T18:43:11;6.90;99.90
55693;DHT22;41590;53.366;5.212;2023-01-09T18:45:41;7.00;99.90
55693;DHT22;41590;53.366;5.212;2023-01-09T18:48:10;6.80;99.90
55693;DHT22;41590;53.366;5.212;2023-01-09T18:50:38;6.60;99.90
55693;DHT22;41590;53.366;5.212;2023-01-09T18:53:07;6.40;99.90
55693;DHT22;41590;53.366;5.212;2023-01-09T18:55:35;6.80;99.90
55693;DHT22;41590;53.366;5.212;2023-01-09T18:58:04;6.40;99.90
55693;DHT22;41590;53.366;5.212;2023-01-09T19:00:37;6.10;99.90
55693;DHT22;41590;53.366;5.212;2023-01-09T19:03:14;6.10;99.90
55693;DHT22;41590;53.366;5.212;2023-01-09T19:05:41;6.10;99.90
55693;DHT22;41590;53.366;5.212;2023-01-09T19:08:07;6.20;99.90
55693;DHT22;41590;53.366;5.212;2023-01-09T19:10:52;6.90;99.90
55693;DHT22;41590;53.366;5.212;2023-01-09T19:13:18;7.00;99.90
55693;DHT22;41590;53.366;5.212;2023-01-09T19:16:03;7.00;99.90
55693;DHT22;41590;53.366;5.212;2023-01-09T19:18:37;6.80;99.90
55693;DHT22;41590;53.366;5.212;2023-01-09T19:21:20;6.70;99.90
55693;DHT22;41590;53.366;5.212;2023-01-09T19:23:49;6.70;99.90
55693;DHT22;41590;53.366;5.212;2023-01-09T19:26:20;6.60;99.90
55693;DHT22;41590;53.366;5.212;2023-01-09T19:28:52;6.50;99.90
55693;DHT22;41590;53.366;5.212;2023-01-09T19:32:13;6.90;99.90
55693;DHT22;41590;53.366;5.212;2023-01-09T19:35:00;6.80;99.90
55693;DHT22;41590;53.366;5.212;2023-01-09T19:37:43;6.50;99.90
55693;DHT22;41590;53.366;5.212;2023-01-09T19:40:25;6.90;99.90
55693;DHT22;41590;53.366;5.212;2023-01-09T19:43:03;6.30;99.90
55693;DHT22;41590;53.366;5.212;2023-01-09T19:45:29;6.40;99.90
55693;DHT22;41590;53.366;5.212;2023-01-09T19:47:55;6.40;99.90
55693;DHT22;41590;53.366;5.212;2023-01-09T19:50:48;6.90;99.90
55693;DHT22;41590;53.366;5.212;2023-01-09T19:57:17;6.60;99.90
55693;DHT22;41590;53.366;5.212;2023-01-09T20:06:56;6.80;99.90
55693;DHT22;41590;53.366;5.212;2023-01-09T20:09:22;6.90;99.90
55693;DHT22;41590;53.366;5.212;2023-01-09T20:11:59;7.10;99.90
55693;DHT22;41590;53.366;5.212;2023-01-09T20:20:36;6.70;99.90
55693;DHT22;41590;53.366;5.212;2023-01-09T20:23:34;6.90;99.90
55693;DHT22;41590;53.366;5.212;2023-01-09T20:30:00;7.20;99.90
55693;DHT22;41590;53.366;5.212;2023-01-09T20:36:07;7.50;99.90
55693;DHT22;41590;53.366;5.212;2023-01-09T20:38:36;7.00;99.90
55693;DHT22;41590;53.366;5.212;2023-01-09T20:41:14;7.20;99.90
55693;DHT22;41590;53.366;5.212;2023-01-09T20:43:55;7.50;99.90
55693;DHT22;41590;53.366;5.212;2023-01-09T20:46:28;7.50;99.90
55693;DHT22;41590;53.366;5.212;2023-01-09T20:48:56;7.40;99.90
55693;DHT22;41590;53.366;5.212;2023-01-09T20:51:24;7.40;99.90
55693;DHT22;41590;53.366;5.212;2023-01-09T20:54:21;7.20;99.90
55693;DHT22;41590;53.366;5.212;2023-01-09T20:56:54;7.30;99.90
55693;DHT22;41590;53.366;5.212;2023-01-09T20:59:43;7.50;99.90
55693;DHT22;41590;53.366;5.212;2023-01-09T21:02:17;7.30;99.90
55693;DHT22;41590;53.366;5.212;2023-01-09T21:05:24;7.50;99.90
55693;DHT22;41590;53.366;5.212;2023-01-09T21:08:26;7.20;99.90
55693;DHT22;41590;53.366;5.212;2023-01-09T21:11:11;7.20;99.90
55693;DHT22;41590;53.366;5.212;2023-01-09T21:13:48;7.20;99.90
55693;DHT22;41590;53.366;5.212;2023-01-09T21:16:17;7.40;99.90
55693;DHT22;41590;53.366;5.212;2023-01-09T21:19:14;7.20;99.90
55693;DHT22;41590;53.366;5.212;2023-01-09T21:21:51;7.20;99.90
55693;DHT22;41590;53.366;5.212;2023-01-09T21:24:23;7.20;99.90
55693;DHT22;41590;53.366;5.212;2023-01-09T21:26:49;7.20;99.90
55693;DHT22;41590;53.366;5.212;2023-01-09T21:29:14;7.30;99.90
55693;DHT22;41590;53.366;5.212;2023-01-09T21:31:40;7.10;99.90
55693;DHT22;41590;53.366;5.212;2023-01-09T21:34:10;7.30;99.90
55693;DHT22;41590;53.366;5.212;2023-01-09T21:36:46;7.30;99.90
55693;DHT22;41590;53.366;5.212;2023-01-09T21:39:38;7.20;99.90
55693;DHT22;41590;53.366;5.212;2023-01-09T21:42:16;7.10;99.90
55693;DHT22;41590;53.366;5.212;2023-01-09T21:45:04;7.30;99.90
55693;DHT22;41590;53.366;5.212;2023-01-09T21:47:48;7.30;99.90
55693;DHT22;41590;53.366;5.212;2023-01-09T21:50:20;7.00;99.90
55693;DHT22;41590;53.366;5.212;2023-01-09T21:53:30;6.90;99.90
55693;DHT22;41590;53.366;5.212;2023-01-09T21:56:37;7.00;99.90
55693;DHT22;41590;53.366;5.212;2023-01-09T22:02:50;6.20;99.90
55693;DHT22;41590;53.366;5.212;2023-01-09T22:05:43;6.50;99.90
55693;DHT22;41590;53.366;5.212;2023-01-09T22:11:51;6.60;99.90
55693;DHT22;41590;53.366;5.212;2023-01-09T22:14:26;6.60;99.90
55693;DHT22;41590;53.366;5.212;2023-01-09T22:16:59;6.50;99.90
55693;DHT22;41590;53.366;5.212;2023-01-09T22:22:53;6.10;99.90
55693;DHT22;41590;53.366;5.212;2023-01-09T22:25:19;7.10;99.90
55693;DHT22;41590;53.366;5.212;2023-01-09T22:28:05;6.30;99.90
55693;DHT22;41590;53.366;5.212;2023-01-09T22:30:51;6.50;99.90
55693;DHT22;41590;53.366;5.212;2023-01-09T22:33:53;6.80;99.90
55693;DHT22;41590;53.366;5.212;2023-01-09T22:36:24;6.60;99.90
55693;DHT22;41590;53.366;5.212;2023-01-09T22:38:53;6.80;99.90
55693;DHT22;41590;53.366;5.212;2023-01-09T22:41:24;6.80;99.90
55693;DHT22;41590;53.366;5.212;2023-01-09T22:43:53;6.70;99.90
55693;DHT22;41590;53.366;5.212;2023-01-09T22:47:09;6.70;99.90
55693;DHT22;41590;53.366;5.212;2023-01-09T22:49:57;6.60;99.90
55693;DHT22;41590;53.366;5.212;2023-01-09T22:52:44;6.70;99.90
55693;DHT22;41590;53.366;5.212;2023-01-09T22:55:34;6.30;99.90
55693;DHT22;41590;53.366;5.212;2023-01-09T22:58:04;6.90;99.90
55693;DHT22;41590;53.366;5.212;2023-01-09T23:00:42;7.00;99.90
55693;DHT22;41590;53.366;5.212;2023-01-09T23:03:45;6.80;99.90
55693;DHT22;41590;53.366;5.212;2023-01-09T23:06:25;7.10;99.90
55693;DHT22;41590;53.366;5.212;2023-01-09T23:09:58;7.00;99.90
55693;DHT22;41590;53.366;5.212;2023-01-09T23:12:45;7.20;99.90
55693;DHT22;41590;53.366;5.212;2023-01-09T23:15:55;7.20;99.90
55693;DHT22;41590;53.366;5.212;2023-01-09T23:18:46;7.50;99.90
55693;DHT22;41590;53.366;5.212;2023-01-09T23:21:40;7.20;99.90
55693;DHT22;41590;53.366;5.212;2023-01-09T23:24:14;7.10;99.90
55693;DHT22;41590;53.366;5.212;2023-01-09T23:27:30;7.30;99.90
55693;DHT22;41590;53.366;5.212;2023-01-09T23:30:21;6.40;99.90
55693;DHT22;41590;53.366;5.212;2023-01-09T23:33:17;7.00;99.90
55693;DHT22;41590;53.366;5.212;2023-01-09T23:39:55;7.10;99.90
55693;DHT22;41590;53.366;5.212;2023-01-09T23:43:01;7.00;99.90
55693;DHT22;41590;53.366;5.212;2023-01-09T23:48:39;7.30;99.90
55693;DHT22;41590;53.366;5.212;2023-01-09T23:51:27;7.50;99.90
55693;DHT22;41590;53.366;5.212;2023-01-09T23:54:04;7.30;99.90